createdAt,value
2018-04-06T00:01:23.238Z,7.07
2018-04-06T00:03:51.659Z,5.72
2018-04-06T00:06:20.043Z,5.93
2018-04-06T00:08:48.644Z,6.35
2018-04-06T00:11:17.055Z,6.82
2018-04-06T00:13:45.559Z,5.87
2018-04-06T00:16:14.013Z,6.15
2018-04-06T00:18:42.549Z,5.50
2018-04-06T00:21:11.013Z,6.00
2018-04-06T00:23:39.509Z,6.65
2018-04-06T00:26:07.924Z,7.37
2018-04-06T00:28:36.364Z,7.40
2018-04-06T00:31:04.707Z,6.65
2018-04-06T00:33:33.081Z,5.78
2018-04-06T00:36:02.231Z,6.68
2018-04-06T00:38:30.672Z,6.35
2018-04-06T00:40:59.072Z,5.25
2018-04-06T00:43:27.455Z,6.20
2018-04-06T00:45:55.874Z,6.37
2018-04-06T00:48:24.360Z,5.55
2018-04-06T00:50:52.758Z,5.40
2018-04-06T00:53:39.524Z,5.80
2018-04-06T00:56:09.242Z,5.75
2018-04-06T00:58:37.640Z,6.12
2018-04-06T01:01:06.228Z,6.82
2018-04-06T01:03:34.935Z,6.15
2018-04-06T01:06:04.100Z,5.18
2018-04-06T01:08:32.508Z,6.35
2018-04-06T01:11:01.673Z,5.95
2018-04-06T01:13:30.099Z,6.60
2018-04-06T01:15:59.266Z,4.95
2018-04-06T01:18:27.668Z,6.37
2018-04-06T01:20:56.051Z,6.07
2018-04-06T01:23:25.228Z,5.22
2018-04-06T01:25:53.609Z,5.22
2018-04-06T01:28:22.008Z,5.10
2018-04-06T01:30:50.917Z,5.30
2018-04-06T01:33:20.078Z,4.55
2018-04-06T01:35:48.515Z,5.80
2018-04-06T01:38:16.891Z,4.75
2018-04-06T01:40:45.287Z,5.00
2018-04-06T01:43:13.664Z,5.70
2018-04-06T01:45:42.076Z,5.85
2018-04-06T01:48:10.484Z,5.32
2018-04-06T01:50:38.951Z,5.18
2018-04-06T01:53:07.355Z,5.35
2018-04-06T01:55:36.554Z,5.05
2018-04-06T01:58:06.104Z,4.47
2018-04-06T02:00:34.531Z,4.93
2018-04-06T02:03:02.914Z,4.78
2018-04-06T02:05:31.312Z,6.00
2018-04-06T02:08:00.464Z,5.65
2018-04-06T02:10:28.871Z,5.80
2018-04-06T02:12:57.279Z,5.90
2018-04-06T02:15:26.607Z,5.62
2018-04-06T02:17:55.037Z,6.28
2018-04-06T02:20:23.413Z,5.10
2018-04-06T02:22:52.571Z,6.10
2018-04-06T02:25:20.949Z,4.85
2018-04-06T02:27:49.384Z,5.03
2018-04-06T02:30:18.578Z,6.03
2018-04-06T02:32:46.959Z,5.80
2018-04-06T02:35:15.338Z,5.93
2018-04-06T02:37:43.738Z,5.05
2018-04-06T02:40:12.113Z,4.78
2018-04-06T02:42:41.390Z,5.32
2018-04-06T02:45:09.801Z,5.07
2018-04-06T02:47:39.066Z,4.50
2018-04-06T02:50:07.466Z,4.40
2018-04-06T02:52:36.641Z,4.95
2018-04-06T02:55:05.025Z,5.15
2018-04-06T02:57:33.447Z,5.80
2018-04-06T03:00:02.707Z,5.10
2018-04-06T03:02:31.147Z,4.90
2018-04-06T03:04:59.544Z,4.07
2018-04-06T03:07:28.014Z,4.70
2018-04-06T03:09:56.402Z,4.47
2018-04-06T03:12:24.898Z,5.12
2018-04-06T03:14:53.298Z,3.95
2018-04-06T03:17:21.656Z,5.28
2018-04-06T03:19:50.147Z,5.30
2018-04-06T03:22:18.527Z,4.72
2018-04-06T03:24:46.914Z,4.85
2018-04-06T03:27:15.294Z,4.50
2018-04-06T03:29:43.725Z,5.03
2018-04-06T03:32:12.104Z,5.00
2018-04-06T03:34:40.539Z,4.97
2018-04-06T03:37:08.935Z,4.80
2018-04-06T03:39:37.325Z,4.53
2018-04-06T03:42:06.475Z,5.70
2018-04-06T03:44:34.866Z,5.40
2018-04-06T03:47:03.273Z,4.93
2018-04-06T03:49:31.939Z,5.30
2018-04-06T03:52:00.355Z,6.07
2018-04-06T03:54:28.823Z,5.57
2018-04-06T03:56:57.223Z,6.07
2018-04-06T03:59:25.602Z,5.93
2018-04-06T04:01:53.991Z,5.45
2018-04-06T04:04:23.174Z,5.75
2018-04-06T04:06:51.570Z,5.75
2018-04-06T04:09:20.768Z,6.40
2018-04-06T04:11:49.925Z,4.68
2018-04-06T04:14:18.309Z,5.37
2018-04-06T04:16:46.804Z,6.72
2018-04-06T04:19:15.584Z,5.32
2018-04-06T04:21:44.015Z,5.95
2018-04-06T04:24:13.237Z,6.78
2018-04-06T04:26:41.647Z,5.60
2018-04-06T04:29:10.071Z,6.62
2018-04-06T04:31:39.227Z,7.12
2018-04-06T04:34:07.627Z,6.55
2018-04-06T04:36:36.033Z,6.15
2018-04-06T04:39:06.138Z,5.82
2018-04-06T04:41:34.560Z,6.65
2018-04-06T04:44:02.952Z,7.07
2018-04-06T04:46:31.351Z,6.00
2018-04-06T04:48:59.737Z,7.15
2018-04-06T04:51:28.145Z,6.25
2018-04-06T04:53:56.600Z,6.60
2018-04-06T04:56:24.992Z,6.62
2018-04-06T04:58:53.383Z,6.93
2018-04-06T05:01:21.778Z,6.35
2018-04-06T05:03:50.950Z,7.60
2018-04-06T05:06:19.311Z,6.95
2018-04-06T05:08:47.710Z,7.10
2018-04-06T05:11:16.084Z,7.12
2018-04-06T05:13:44.461Z,7.00
2018-04-06T05:16:12.916Z,7.43
2018-04-06T05:18:41.314Z,7.72
2018-04-06T05:21:09.731Z,7.80
2018-04-06T05:23:38.107Z,8.10
2018-04-06T05:26:06.523Z,8.88
2018-04-06T05:28:34.925Z,9.00
2018-04-06T05:31:03.335Z,8.13
2018-04-06T05:33:31.731Z,8.80
2018-04-06T05:36:00.144Z,8.20
2018-04-06T05:38:28.610Z,9.25
2018-04-06T05:40:57.759Z,9.55
2018-04-06T05:43:26.201Z,9.40
2018-04-06T05:45:55.351Z,10.30
2018-04-06T05:48:23.738Z,9.32
2018-04-06T05:50:52.251Z,8.75
2018-04-06T05:53:21.552Z,7.90
2018-04-06T05:55:50.700Z,8.10
2018-04-06T05:58:19.208Z,7.87
2018-04-06T06:00:47.575Z,7.47
2018-04-06T06:03:16.046Z,7.10
2018-04-06T06:05:44.443Z,6.05
2018-04-06T06:08:12.839Z,6.90
2018-04-06T06:10:41.358Z,6.57
2018-04-06T06:13:09.776Z,7.50
2018-04-06T06:15:38.205Z,6.35
2018-04-06T06:18:07.355Z,6.45
2018-04-06T06:20:35.756Z,6.15
2018-04-06T06:23:04.310Z,5.55
2018-04-06T06:25:32.765Z,5.43
2018-04-06T06:28:01.221Z,5.90
2018-04-06T06:30:29.631Z,5.60
2018-04-06T06:32:58.061Z,6.83
2018-04-06T06:35:26.468Z,5.70
2018-04-06T06:37:55.662Z,7.30
2018-04-06T06:40:24.047Z,6.13
2018-04-06T06:42:53.541Z,6.67
2018-04-06T06:45:22.018Z,7.57
2018-04-06T06:47:50.417Z,6.40
2018-04-06T06:50:19.631Z,6.67
2018-04-06T06:52:48.775Z,6.53
2018-04-06T06:55:17.192Z,6.37
2018-04-06T06:57:45.587Z,6.30
2018-04-06T07:00:15.568Z,5.90
2018-04-06T07:02:43.984Z,6.13
2018-04-06T07:05:13.335Z,6.37
2018-04-06T07:07:41.744Z,5.97
2018-04-06T07:10:10.941Z,6.80
2018-04-06T07:12:40.107Z,5.30
2018-04-06T07:15:08.516Z,6.70
2018-04-06T07:17:36.987Z,6.70
2018-04-06T07:20:05.510Z,5.67
2018-04-06T07:22:34.688Z,6.10
2018-04-06T07:25:03.949Z,5.93
2018-04-06T07:27:32.421Z,5.93
2018-04-06T07:30:00.863Z,5.13
2018-04-06T07:32:29.331Z,5.93
2018-04-06T07:34:57.713Z,5.43
2018-04-06T07:37:26.339Z,6.50
2018-04-06T07:39:55.664Z,5.20
2018-04-06T07:42:24.062Z,4.97
2018-04-06T07:44:52.481Z,6.67
2018-04-06T07:47:20.905Z,5.80
2018-04-06T07:49:49.358Z,5.30
2018-04-06T07:52:17.840Z,5.20
2018-04-06T07:54:47.199Z,4.47
2018-04-06T07:57:15.854Z,4.60
2018-04-06T07:59:44.280Z,4.77
2018-04-06T08:02:13.156Z,3.80
2018-04-06T08:04:41.582Z,5.37
2018-04-06T08:07:10.753Z,4.70
2018-04-06T08:09:39.282Z,4.83
2018-04-06T08:12:07.808Z,4.50
2018-04-06T08:14:36.384Z,4.17
2018-04-06T08:17:04.953Z,4.23
2018-04-06T08:19:33.376Z,5.77
2018-04-06T08:22:01.791Z,4.40
2018-04-06T08:24:31.224Z,5.03
2018-04-06T08:26:59.638Z,4.10
2018-04-06T08:29:28.083Z,4.43
2018-04-06T08:31:56.527Z,4.10
2018-04-06T08:34:24.950Z,4.23
2018-04-06T08:36:53.429Z,5.13
2018-04-06T08:39:21.824Z,3.53
2018-04-06T08:41:50.235Z,4.57
2018-04-06T08:44:18.730Z,4.50
2018-04-06T08:46:47.193Z,4.07
2018-04-06T08:49:15.600Z,3.80
2018-04-06T08:51:44.005Z,4.00
2018-04-06T08:54:12.466Z,3.87
2018-04-06T08:56:40.831Z,3.73
2018-04-06T08:59:09.232Z,4.03
2018-04-06T09:01:38.420Z,3.57
2018-04-06T09:04:06.801Z,3.10
2018-04-06T09:06:35.223Z,2.83
2018-04-06T09:09:03.619Z,2.77
2018-04-06T09:11:32.038Z,3.27
2018-04-06T09:14:00.474Z,3.13
2018-04-06T09:16:29.111Z,3.00
2018-04-06T09:18:57.493Z,2.93
2018-04-06T09:21:25.902Z,3.47
2018-04-06T09:23:54.314Z,2.90
2018-04-06T09:26:22.682Z,2.70
2018-04-06T09:28:51.088Z,3.30
2018-04-06T09:31:19.463Z,3.73
2018-04-06T09:33:47.871Z,4.47
2018-04-06T09:36:16.271Z,4.33
2018-04-06T09:38:44.696Z,4.03
2018-04-06T09:41:13.174Z,3.30
2018-04-06T09:43:41.612Z,3.40
2018-04-06T09:46:10.036Z,2.70
2018-04-06T09:48:38.440Z,2.07
2018-04-06T09:51:06.852Z,2.87
2018-04-06T09:53:36.044Z,2.37
2018-04-06T09:56:04.446Z,2.10
2018-04-06T09:58:32.919Z,2.10
2018-04-06T10:01:01.315Z,2.10
2018-04-06T10:03:29.719Z,1.97
2018-04-06T10:05:58.120Z,2.20
2018-04-06T10:08:26.528Z,2.00
2018-04-06T10:10:55.693Z,1.90
2018-04-06T10:13:24.088Z,2.40
2018-04-06T10:15:52.496Z,2.23
2018-04-06T10:18:21.688Z,1.60
2018-04-06T10:20:50.329Z,1.80
2018-04-06T10:23:18.847Z,2.10
2018-04-06T10:25:47.238Z,2.00
2018-04-06T10:28:16.389Z,1.97
2018-04-06T10:30:44.856Z,1.87
2018-04-06T10:33:13.254Z,2.10
2018-04-06T10:35:41.751Z,2.13
2018-04-06T10:38:10.168Z,2.10
2018-04-06T10:40:39.351Z,2.30
2018-04-06T10:43:07.759Z,2.20
2018-04-06T10:45:36.967Z,2.20
2018-04-06T10:48:05.415Z,2.07
2018-04-06T10:50:33.815Z,2.00
2018-04-06T10:53:03.045Z,2.13
2018-04-06T10:55:31.521Z,1.97
2018-04-06T10:57:59.940Z,2.07
2018-04-06T11:00:28.313Z,2.30
2018-04-06T11:02:56.701Z,1.80
2018-04-06T11:05:25.106Z,1.73
2018-04-06T11:07:53.507Z,2.10
2018-04-06T11:10:21.948Z,2.33
2018-04-06T11:12:50.467Z,1.97
2018-04-06T11:15:19.678Z,2.30
2018-04-06T11:17:48.076Z,2.50
2018-04-06T11:20:16.530Z,2.10
2018-04-06T11:22:45.669Z,2.37
2018-04-06T11:25:14.105Z,2.03
2018-04-06T11:27:43.263Z,2.33
2018-04-06T11:30:11.664Z,2.30
2018-04-06T11:32:40.080Z,1.90
2018-04-06T11:35:09.465Z,1.80
2018-04-06T11:37:37.880Z,2.50
2018-04-06T11:40:06.258Z,2.20
2018-04-06T11:42:35.421Z,2.90
2018-04-06T11:45:03.821Z,3.00
2018-04-06T11:47:32.955Z,2.40
2018-04-06T11:50:01.555Z,2.40
2018-04-06T11:52:30.031Z,3.43
2018-04-06T11:54:58.405Z,2.27
2018-04-06T11:57:26.892Z,2.27
2018-04-06T11:59:55.442Z,1.53
2018-04-06T12:02:24.772Z,1.87
2018-04-06T12:04:53.266Z,2.70
2018-04-06T12:07:21.696Z,2.40
2018-04-06T12:09:50.870Z,1.67
2018-04-06T12:12:19.299Z,2.00
2018-04-06T12:14:48.668Z,2.50
2018-04-06T12:17:17.419Z,1.93
2018-04-06T12:19:45.823Z,2.20
2018-04-06T12:22:14.219Z,2.00
2018-04-06T12:24:42.721Z,1.97
2018-04-06T12:27:11.892Z,2.23
2018-04-06T12:29:40.279Z,2.20
2018-04-06T12:32:08.719Z,2.67
2018-04-06T12:34:37.134Z,2.00
2018-04-06T12:37:05.577Z,2.10
2018-04-06T12:39:34.075Z,2.10
2018-04-06T12:42:02.549Z,1.97
2018-04-06T12:44:30.939Z,1.97
2018-04-06T12:46:59.356Z,2.23
2018-04-06T12:49:27.794Z,2.60
2018-04-06T12:51:56.279Z,2.70
2018-04-06T12:54:24.685Z,2.27
2018-04-06T12:56:53.284Z,2.43
2018-04-06T12:59:21.696Z,2.43
2018-04-06T13:01:50.847Z,3.30
2018-04-06T13:04:19.250Z,2.37
2018-04-06T13:06:47.645Z,2.37
2018-04-06T13:09:16.071Z,2.33
2018-04-06T13:11:44.570Z,2.00
2018-04-06T13:14:12.993Z,2.80
2018-04-06T13:16:41.414Z,2.60
2018-04-06T13:19:09.851Z,2.23
2018-04-06T13:21:38.256Z,2.20
2018-04-06T13:24:06.658Z,2.50
2018-04-06T13:26:35.816Z,2.40
2018-04-06T13:29:04.226Z,2.33
2018-04-06T13:31:33.397Z,2.60
2018-04-06T13:34:01.795Z,2.53
2018-04-06T13:36:31.015Z,2.70
2018-04-06T13:39:00.210Z,2.13
2018-04-06T13:41:28.598Z,2.50
2018-04-06T13:43:57.887Z,2.63
2018-04-06T13:46:27.067Z,2.33
2018-04-06T13:48:56.421Z,2.40
2018-04-06T13:51:24.886Z,3.10
2018-04-06T13:53:54.056Z,3.10
2018-04-06T13:56:23.574Z,2.80
2018-04-06T13:58:52.073Z,2.60
2018-04-06T14:01:21.265Z,2.87
2018-04-06T14:03:50.443Z,2.20
2018-04-06T14:06:18.828Z,2.23
2018-04-06T14:08:47.248Z,2.20
2018-04-06T14:11:15.676Z,2.30
2018-04-06T14:13:44.058Z,2.57
2018-04-06T14:16:12.464Z,2.50
2018-04-06T14:18:40.843Z,2.60
2018-04-06T14:21:10.043Z,2.60
2018-04-06T14:23:38.494Z,2.50
2018-04-06T14:26:06.890Z,2.50
2018-04-06T14:28:35.290Z,2.00
2018-04-06T14:31:03.685Z,2.47
2018-04-06T14:33:32.871Z,2.17
2018-04-06T14:36:01.407Z,2.30
2018-04-06T14:38:29.819Z,2.40
2018-04-06T14:40:58.223Z,2.70
2018-04-06T14:43:26.781Z,2.60
2018-04-06T14:45:55.279Z,2.60
2018-04-06T14:48:23.720Z,2.30
2018-04-06T14:50:52.143Z,2.60
2018-04-06T14:53:20.636Z,2.07
2018-04-06T14:55:49.129Z,2.73
2018-04-06T14:58:17.487Z,2.47
2018-04-06T15:00:45.967Z,2.30
2018-04-06T15:03:14.370Z,2.27
2018-04-06T15:05:43.672Z,2.17
2018-04-06T15:08:12.155Z,2.47
2018-04-06T15:10:41.698Z,2.50
2018-04-06T15:13:10.115Z,2.10
2018-04-06T15:15:39.317Z,2.43
2018-04-06T15:18:07.718Z,2.40
2018-04-06T15:20:37.406Z,2.50
2018-04-06T15:23:05.836Z,2.37
2018-04-06T15:25:34.994Z,2.43
2018-04-06T15:28:05.072Z,2.40
2018-04-06T15:30:34.233Z,2.33
2018-04-06T15:33:02.632Z,3.10
2018-04-06T15:35:31.032Z,3.10
2018-04-06T15:37:59.422Z,2.90
2018-04-06T15:40:27.822Z,2.53
2018-04-06T15:42:56.257Z,2.73
2018-04-06T15:45:24.668Z,2.10
2018-04-06T15:47:53.127Z,2.37
2018-04-06T15:50:21.581Z,1.87
2018-04-06T15:52:49.979Z,2.30
2018-04-06T15:55:18.560Z,2.50
2018-04-06T15:57:47.717Z,2.20
2018-04-06T16:00:16.138Z,3.00
2018-04-06T16:02:44.521Z,2.50
2018-04-06T16:05:13.719Z,2.80
2018-04-06T16:07:42.229Z,2.83
2018-04-06T16:10:11.476Z,2.10
2018-04-06T16:12:39.996Z,2.50
2018-04-06T16:15:08.387Z,2.10
2018-04-06T16:17:37.533Z,2.03
2018-04-06T16:20:05.929Z,1.97
2018-04-06T16:22:34.365Z,2.03
2018-04-06T16:25:03.577Z,1.97
2018-04-06T16:27:32.017Z,2.17
2018-04-06T16:30:00.532Z,2.10
2018-04-06T16:32:28.992Z,2.67
2018-04-06T16:34:57.386Z,2.03
2018-04-06T16:37:26.540Z,2.20
2018-04-06T16:39:55.125Z,2.03
2018-04-06T16:42:23.701Z,1.83
2018-04-06T16:44:52.088Z,2.97
2018-04-06T16:47:20.528Z,2.53
2018-04-06T16:49:48.973Z,2.07
2018-04-06T16:52:17.379Z,1.93
2018-04-06T16:54:46.686Z,1.97
2018-04-06T16:57:15.897Z,2.30
2018-04-06T16:59:45.089Z,2.40
2018-04-06T17:02:14.249Z,2.60
2018-04-06T17:04:42.741Z,2.17
2018-04-06T17:07:11.144Z,1.50
2018-04-06T17:09:40.313Z,2.27
2018-04-06T17:12:08.760Z,2.10
2018-04-06T17:14:37.185Z,2.40
2018-04-06T17:17:05.605Z,2.30
2018-04-06T17:19:34.012Z,2.17
2018-04-06T17:22:02.421Z,1.90
2018-04-06T17:24:30.824Z,1.80
2018-04-06T17:27:00.011Z,2.40
2018-04-06T17:29:29.179Z,2.13
2018-04-06T17:31:57.600Z,2.20
2018-04-06T17:34:26.002Z,1.93
2018-04-06T17:36:55.188Z,1.97
2018-04-06T17:39:24.352Z,1.97
2018-04-06T17:41:53.716Z,2.53
2018-04-06T17:44:22.133Z,2.17
2018-04-06T17:46:50.553Z,2.00
2018-04-06T17:49:19.811Z,2.23
2018-04-06T17:51:48.194Z,1.70
2018-04-06T17:54:16.683Z,1.70
2018-04-06T17:56:45.099Z,1.90
2018-04-06T17:59:14.304Z,2.07
2018-04-06T18:01:44.516Z,2.20
2018-04-06T18:04:14.387Z,2.00
2018-04-06T18:06:42.827Z,2.10
2018-04-06T18:09:11.382Z,1.97
2018-04-06T18:11:40.563Z,2.20
2018-04-06T18:14:09.942Z,2.67
2018-04-06T18:16:38.515Z,2.20
2018-04-06T18:19:07.124Z,2.57
2018-04-06T18:21:36.319Z,2.80
2018-04-06T18:24:05.516Z,2.17
2018-04-06T18:26:33.905Z,2.00
2018-04-06T18:29:02.305Z,1.90
2018-04-06T18:31:31.468Z,2.00
2018-04-06T18:33:59.860Z,2.37
2018-04-06T18:36:29.043Z,2.50
2018-04-06T18:38:57.451Z,3.17
2018-04-06T18:41:25.892Z,2.10
2018-04-06T18:43:54.311Z,2.10
2018-04-06T18:46:22.691Z,2.73
2018-04-06T18:48:51.225Z,3.03
2018-04-06T18:51:19.651Z,2.77
2018-04-06T18:53:48.091Z,2.63
2018-04-06T18:56:16.647Z,2.10
2018-04-06T18:58:45.487Z,3.23
2018-04-06T19:01:14.736Z,2.17
2018-04-06T19:03:43.248Z,1.93
2018-04-06T19:06:12.046Z,2.13
2018-04-06T19:08:40.463Z,2.23
2018-04-06T19:11:09.736Z,1.87
2018-04-06T19:13:38.154Z,2.43
2018-04-06T19:16:07.325Z,2.73
2018-04-06T19:18:35.720Z,2.63
2018-04-06T19:21:04.134Z,1.97
2018-04-06T19:23:32.637Z,2.20
2018-04-06T19:26:01.970Z,2.23
2018-04-06T19:28:31.204Z,2.20
2018-04-06T19:31:00.699Z,2.10
2018-04-06T19:33:29.888Z,2.30
2018-04-06T19:35:58.338Z,2.23
2018-04-06T19:38:26.908Z,2.67
2018-04-06T19:40:55.438Z,1.97
2018-04-06T19:43:23.993Z,2.40
2018-04-06T19:45:52.427Z,2.80
2018-04-06T19:48:21.673Z,3.67
2018-04-06T19:50:50.245Z,3.10
2018-04-06T19:53:18.724Z,3.20
2018-04-06T19:55:49.125Z,3.43
2018-04-06T19:58:19.729Z,2.60
2018-04-06T20:00:48.176Z,2.83
2018-04-06T20:03:17.368Z,2.90
2018-04-06T20:05:45.801Z,2.70
2018-04-06T20:08:14.238Z,3.10
2018-04-06T20:10:43.408Z,3.43
2018-04-06T20:13:11.810Z,3.40
2018-04-06T20:15:40.203Z,3.43
2018-04-06T20:18:09.458Z,3.27
2018-04-06T20:20:37.928Z,3.10
2018-04-06T20:23:06.378Z,3.23
2018-04-06T20:25:35.552Z,3.10
2018-04-06T20:28:04.206Z,3.10
2018-04-06T20:30:32.608Z,2.70
2018-04-06T20:33:01.876Z,2.73
2018-04-06T20:35:30.309Z,2.27
2018-04-06T20:37:58.706Z,2.37
2018-04-06T20:40:27.919Z,3.23
2018-04-06T20:42:56.335Z,3.10
2018-04-06T20:45:25.736Z,3.00
2018-04-06T20:47:54.142Z,3.07
2018-04-06T20:50:22.735Z,2.67
2018-04-06T20:52:51.174Z,2.83
2018-04-06T20:55:19.586Z,3.10
2018-04-06T20:57:48.055Z,3.03
2018-04-06T21:00:16.442Z,2.80
2018-04-06T21:02:44.900Z,3.10
2018-04-06T21:05:13.322Z,3.27
2018-04-06T21:07:42.291Z,3.00
2018-04-06T21:10:10.750Z,3.08
2018-04-06T21:12:39.197Z,2.75
2018-04-06T21:15:07.750Z,2.85
2018-04-06T21:17:36.181Z,2.80
2018-04-06T21:20:04.569Z,2.70
2018-04-06T21:22:33.816Z,3.20
2018-04-06T21:25:02.220Z,2.63
2018-04-06T21:27:31.543Z,3.67
2018-04-06T21:29:59.954Z,2.90
2018-04-06T21:32:28.416Z,3.33
2018-04-06T21:34:56.870Z,4.07
2018-04-06T21:37:25.270Z,2.80
2018-04-06T21:39:53.711Z,3.20
2018-04-06T21:42:22.182Z,3.00
2018-04-06T21:44:50.596Z,3.30
2018-04-06T21:47:19.177Z,3.17
2018-04-06T21:49:48.344Z,3.23
2018-04-06T21:52:17.841Z,3.40
2018-04-06T21:54:46.380Z,3.37
2018-04-06T21:57:14.791Z,3.20
2018-04-06T21:59:43.192Z,3.47
2018-04-06T22:02:12.999Z,3.60
2018-04-06T22:04:41.424Z,3.30
2018-04-06T22:07:09.840Z,3.27
2018-04-06T22:09:38.526Z,3.72
2018-04-06T22:12:06.965Z,3.30
2018-04-06T22:14:36.173Z,2.83
2018-04-06T22:17:05.417Z,2.60
2018-04-06T22:19:33.799Z,3.53
2018-04-06T22:22:02.275Z,3.70
2018-04-06T22:24:30.710Z,3.47
2018-04-06T22:26:59.970Z,4.90
2018-04-06T22:29:28.353Z,4.00
2018-04-06T22:31:56.780Z,3.23
2018-04-06T22:34:26.015Z,4.03
2018-04-06T22:36:54.985Z,3.20
2018-04-06T22:39:24.283Z,3.93
2018-04-06T22:41:52.900Z,3.50
2018-04-06T22:44:21.426Z,3.30
2018-04-06T22:46:50.623Z,3.53
2018-04-06T22:49:19.112Z,4.33
2018-04-06T22:51:47.529Z,3.47
2018-04-06T22:54:15.942Z,3.70
2018-04-06T22:56:44.330Z,3.90
2018-04-06T22:59:12.731Z,3.60
2018-04-06T23:01:41.114Z,3.43
2018-04-06T23:04:09.514Z,4.10
2018-04-06T23:06:38.850Z,3.93
2018-04-06T23:09:07.525Z,4.00
2018-04-06T23:11:35.913Z,4.03
2018-04-06T23:14:04.323Z,3.83
2018-04-06T23:16:32.721Z,4.00
2018-04-06T23:19:01.140Z,3.97
2018-04-06T23:21:29.523Z,3.47
2018-04-06T23:23:57.949Z,3.80
2018-04-06T23:26:36.239Z,4.30
2018-04-06T23:29:04.640Z,3.53
2018-04-06T23:31:33.051Z,3.43
2018-04-06T23:34:02.243Z,4.40
2018-04-06T23:36:30.687Z,3.50
2018-04-06T23:38:59.080Z,4.07
2018-04-06T23:41:27.516Z,3.93
2018-04-06T23:43:55.875Z,3.60
2018-04-06T23:46:25.046Z,3.67
2018-04-06T23:48:53.689Z,3.67
2018-04-06T23:51:22.088Z,3.70
2018-04-06T23:53:50.512Z,3.77
2018-04-06T23:56:19.054Z,4.40
2018-04-06T23:58:47.597Z,3.30
